Time;durP1;ratioP1;P1;durP2;ratioP2;P2;SDS_P1;SDS_P2;PMS_P1;PMS_P2;Temp;Humidity;BMP_temperature;BMP_pressure;BME280_temperature;BME280_humidity;BME280_pressure;Samples;Min_cycle;Max_cycle;Signal;HPM_P1;HPM_P2
2023/04/12 00:00:51;;;;;;;5.18;1.20;;;;;;;10.28;55.92;99007.94;5063259;28;20666;-83
2023/04/12 00:03:19;;;;;;;4.55;1.55;;;;;;;10.25;55.65;98999.53;5062689;28;20477;-83
2023/04/12 00:05:45;;;;;;;6.25;2.70;;;;;;;10.30;56.09;98994.03;5061589;28;20485;-83
2023/04/12 00:08:11;;;;;;;14.57;2.65;;;;;;;10.30;55.95;98985.88;5062960;28;20041;-83
2023/04/12 00:10:37;;;;;;;8.48;2.63;;;;;;;10.33;56.21;98979.84;5062724;28;20024;-84
2023/04/12 00:13:02;;;;;;;4.82;1.50;;;;;;;10.34;56.05;98995.09;5062923;28;20055;-83
2023/04/12 00:15:27;;;;;;;6.10;2.15;;;;;;;10.43;55.88;98986.34;5063121;28;20111;-83
2023/04/12 00:17:53;;;;;;;5.07;1.92;;;;;;;10.38;55.70;98988.00;5062407;28;20045;-83
2023/04/12 00:20:18;;;;;;;6.90;1.63;;;;;;;10.42;56.24;98976.50;5063305;28;20120;-83
2023/04/12 00:22:43;;;;;;;3.95;1.13;;;;;;;10.37;55.87;98977.38;5062679;28;20280;-83
2023/04/12 00:25:09;;;;;;;3.88;1.60;;;;;;;10.43;56.08;98976.25;5063275;28;20036;-83
2023/04/12 00:27:35;;;;;;;11.18;2.13;;;;;;;10.41;56.12;98966.72;5063437;28;20040;-83
2023/04/12 00:30:00;;;;;;;8.93;1.80;;;;;;;10.34;56.07;98969.75;5063361;28;20032;-83
2023/04/12 00:32:26;;;;;;;5.10;1.70;;;;;;;10.29;56.83;98965.19;5061780;28;20040;-83
2023/04/12 00:34:52;;;;;;;6.05;2.40;;;;;;;10.35;56.47;98958.56;5063961;28;20040;-81
2023/04/12 00:37:17;;;;;;;7.88;2.78;;;;;;;10.28;56.89;98958.91;5061980;28;20032;-82
2023/04/12 00:39:43;;;;;;;5.70;1.85;;;;;;;10.35;56.72;98958.56;5063335;28;20048;-83
2023/04/12 00:42:08;;;;;;;6.45;2.10;;;;;;;10.34;56.37;98954.22;5062579;28;20028;-84
2023/04/12 00:44:34;;;;;;;9.57;1.83;;;;;;;10.39;56.88;98939.78;5063194;28;20445;-84
2023/04/12 00:47:00;;;;;;;5.30;1.60;;;;;;;10.31;56.99;98924.03;5062499;28;20111;-82
2023/04/12 00:49:29;;;;;;;9.32;1.83;;;;;;;10.24;57.22;98908.81;5062538;28;20060;-82
2023/04/12 00:52:02;;;;;;;14.40;2.95;;;;;;;10.09;57.92;98912.44;5062554;28;20039;-83
2023/04/12 00:54:28;;;;;;;7.30;1.60;;;;;;;10.04;58.26;98920.66;5061444;28;20121;-82
2023/04/12 00:56:56;;;;;;;6.57;2.45;;;;;;;10.11;58.00;98931.25;5062246;28;20123;-82
2023/04/12 00:59:21;;;;;;;11.35;2.78;;;;;;;10.07;58.83;98924.72;5062132;28;20037;-83
2023/04/12 01:01:46;;;;;;;4.57;1.25;;;;;;;10.06;58.64;98913.03;5063111;28;20101;-83
2023/04/12 01:04:12;;;;;;;4.73;1.60;;;;;;;10.11;59.34;98914.91;5061633;28;20032;-83
2023/04/12 01:06:58;;;;;;;6.82;1.58;;;;;;;9.92;60.15;98908.22;5061330;28;20290;-83
2023/04/12 01:09:56;;;;;;;3.13;1.20;;;;;;;9.97;60.95;98903.81;5062576;28;20032;-84
2023/04/12 01:13:03;;;;;;;5.65;1.50;;;;;;;9.91;61.48;98895.69;5063388;28;20032;-83
2023/04/12 01:15:31;;;;;;;4.30;2.10;;;;;;;9.91;62.41;98883.97;5060690;28;20067;-82
2023/04/12 01:18:15;;;;;;;8.00;2.33;;;;;;;9.93;62.13;98877.16;5061378;28;20041;-83
2023/04/12 01:20:48;;;;;;;4.07;1.10;;;;;;;9.88;63.01;98863.59;5062034;28;20033;-84
2023/04/12 01:23:30;;;;;;;3.95;1.45;;;;;;;9.93;63.38;98868.97;5061142;28;20032;-82
2023/04/12 01:26:05;;;;;;;9.20;1.30;;;;;;;9.81;64.09;98866.59;5060855;28;20059;-82
2023/04/12 01:28:36;;;;;;;4.75;1.63;;;;;;;9.98;63.65;98867.31;5061270;28;20090;-83
2023/04/12 01:31:07;;;;;;;6.65;2.00;;;;;;;9.82;64.37;98856.53;5060681;28;20024;-83
2023/04/12 01:33:36;;;;;;;5.10;1.65;;;;;;;9.88;64.52;98846.44;5060607;28;20090;-84
2023/04/12 01:36:09;;;;;;;5.65;1.20;;;;;;;9.84;65.22;98829.84;5060047;28;20027;-83
2023/04/12 01:38:35;;;;;;;12.83;1.87;;;;;;;9.75;65.83;98828.81;5060089;28;20052;-81
2023/04/12 01:41:00;;;;;;;8.88;2.13;;;;;;;9.74;66.13;98829.91;5060598;28;20053;-83
2023/04/12 01:43:26;;;;;;;2.20;0.82;;;;;;;9.68;66.49;98837.31;5061368;28;20025;-82
2023/04/12 01:45:51;;;;;;;6.75;2.67;;;;;;;9.48;67.16;98832.78;5060076;28;20025;-82
2023/04/12 01:48:19;;;;;;;7.10;1.15;;;;;;;9.41;68.07;98823.03;5061189;28;20029;-82
2023/04/12 01:51:04;;;;;;;9.98;2.33;;;;;;;9.45;68.31;98805.03;5060476;28;20093;-83
2023/04/12 01:53:53;;;;;;;8.63;2.53;;;;;;;9.41;68.72;98809.41;5061816;28;20036;-84
2023/04/12 01:56:21;;;;;;;6.75;1.25;;;;;;;9.48;68.78;98808.31;5060349;28;20048;-82
2023/04/12 01:58:49;;;;;;;11.90;2.78;;;;;;;9.49;69.11;98796.31;5061140;28;20056;-82
2023/04/12 02:01:17;;;;;;;6.82;1.45;;;;;;;9.31;69.97;98787.72;5060658;28;20118;-82
2023/04/12 02:03:44;;;;;;;4.13;1.40;;;;;;;9.31;70.33;98788.53;5059638;28;20032;-83
2023/04/12 02:06:11;;;;;;;4.30;1.30;;;;;;;9.26;70.72;98772.22;5060245;28;20035;-85
2023/04/12 02:08:36;;;;;;;17.88;1.73;;;;;;;9.28;70.68;98769.22;5060252;28;20035;-83
2023/04/12 02:11:09;;;;;;;4.05;1.67;;;;;;;9.20;71.07;98770.63;5060662;28;20029;-82
2023/04/12 02:13:35;;;;;;;4.40;2.00;;;;;;;9.17;71.39;98766.53;5060112;28;20196;-84
2023/04/12 02:16:01;;;;;;;5.90;1.50;;;;;;;9.30;71.11;98753.44;5059105;28;20040;-82
2023/04/12 02:18:29;;;;;;;10.02;1.63;;;;;;;9.42;70.84;98743.03;5060909;28;20024;-82
2023/04/12 02:20:55;;;;;;;7.63;1.60;;;;;;;9.42;70.84;98734.84;5058706;28;20514;-83
2023/04/12 02:23:21;;;;;;;5.57;1.58;;;;;;;9.25;71.70;98721.66;5059740;28;20068;-82
2023/04/12 02:25:46;;;;;;;5.63;1.33;;;;;;;9.08;72.45;98716.56;5059335;28;20441;-83
2023/04/12 02:28:12;;;;;;;5.85;1.58;;;;;;;9.14;72.69;98714.63;5060564;28;20040;-83
2023/04/12 02:30:40;;;;;;;2.92;1.50;;;;;;;9.06;72.70;98711.41;5059541;28;20040;-83
2023/04/12 02:33:06;;;;;;;7.85;1.88;;;;;;;9.19;72.67;98707.25;5058258;28;20582;-83
2023/04/12 02:35:33;;;;;;;4.30;1.63;;;;;;;9.17;72.92;98703.22;5060446;28;20100;-82
2023/04/12 02:37:58;;;;;;;9.68;2.45;;;;;;;9.14;72.75;98693.69;5060082;28;20127;-82
2023/04/12 02:40:24;;;;;;;7.83;1.27;;;;;;;9.00;73.36;98690.78;5059955;28;20059;-83
2023/04/12 02:42:49;;;;;;;6.07;2.55;;;;;;;9.07;73.27;98682.34;5060354;28;20284;-82
2023/04/12 02:45:15;;;;;;;10.18;2.17;;;;;;;9.01;73.17;98673.38;5059734;28;20051;-83
2023/04/12 02:47:40;;;;;;;5.68;1.20;;;;;;;8.93;73.61;98668.56;5059014;28;20028;-82
2023/04/12 02:50:06;;;;;;;4.00;1.50;;;;;;;8.76;74.06;98661.56;5059861;28;20032;-83
2023/04/12 02:52:32;;;;;;;4.93;2.08;;;;;;;8.95;73.33;98659.00;5060707;28;20036;-83
2023/04/12 02:54:58;;;;;;;3.20;1.05;;;;;;;8.82;74.08;98643.31;5060113;28;20099;-76
2023/04/12 02:57:23;;;;;;;7.07;1.33;;;;;;;8.72;73.99;98631.44;5060388;28;20672;-83
2023/04/12 02:59:52;;;;;;;4.78;1.40;;;;;;;8.82;74.10;98629.72;5059678;28;20136;-82
2023/04/12 03:02:18;;;;;;;7.53;2.20;;;;;;;8.74;74.34;98614.84;5059070;28;20028;-82
2023/04/12 03:04:46;;;;;;;4.43;1.67;;;;;;;8.84;74.77;98619.38;5059812;28;20516;-83
2023/04/12 03:07:12;;;;;;;4.57;1.42;;;;;;;8.69;75.04;98603.97;5059849;28;20036;-82
2023/04/12 03:09:37;;;;;;;7.43;1.92;;;;;;;8.73;75.15;98602.31;5060510;28;20036;-82
2023/04/12 03:12:03;;;;;;;4.78;2.10;;;;;;;8.67;75.75;98604.25;5060262;28;20035;-82
2023/04/12 03:14:28;;;;;;;5.35;1.23;;;;;;;8.56;76.46;98598.06;5058456;28;20032;-83
2023/04/12 03:16:53;;;;;;;5.60;2.00;;;;;;;8.67;76.20;98598.00;5060024;28;20032;-82
2023/04/12 03:19:19;;;;;;;3.40;1.25;;;;;;;8.71;75.83;98583.59;5059479;28;20710;-82
2023/04/12 03:21:44;;;;;;;6.32;2.05;;;;;;;8.59;76.88;98575.78;5061608;28;20044;-81
2023/04/12 03:24:10;;;;;;;4.93;1.35;;;;;;;8.62;76.55;98558.13;5063687;28;20043;-82
2023/04/12 03:26:35;;;;;;;7.10;1.88;;;;;;;8.60;76.58;98563.03;5063475;28;20621;-82
2023/04/12 03:29:07;;;;;;;6.95;3.00;;;;;;;8.46;77.07;98551.94;5063134;28;20546;-82
2023/04/12 03:31:33;;;;;;;6.57;1.88;;;;;;;8.51;76.56;98557.31;5064201;28;20035;-82
2023/04/12 03:33:59;;;;;;;3.08;1.20;;;;;;;8.55;77.21;98531.22;5062803;28;20033;-82
2023/04/12 03:36:26;;;;;;;5.20;1.25;;;;;;;8.56;76.76;98529.31;5063397;28;20033;-82
2023/04/12 03:38:51;;;;;;;6.22;2.45;;;;;;;8.42;77.29;98521.78;5062999;28;20048;-83
2023/04/12 03:41:16;;;;;;;2.92;0.90;;;;;;;8.32;77.13;98517.22;5063734;28;20163;-82
2023/04/12 03:43:42;;;;;;;1.97;0.77;;;;;;;8.38;77.79;98504.44;5063893;28;20671;-83
2023/04/12 03:46:07;;;;;;;11.63;1.70;;;;;;;8.36;77.03;98501.19;5063680;28;20343;-82
2023/04/12 03:48:33;;;;;;;3.50;1.20;;;;;;;8.48;76.62;98498.13;5063511;28;20033;-82
2023/04/12 03:50:59;;;;;;;5.25;1.10;;;;;;;8.41;76.46;98493.00;5063057;28;20032;-82
2023/04/12 03:53:26;;;;;;;15.27;2.10;;;;;;;8.42;76.78;98494.63;5062997;28;20409;-81
2023/04/12 03:55:51;;;;;;;4.90;1.73;;;;;;;8.53;76.04;98495.38;5062361;28;20587;-82
2023/04/12 03:58:17;;;;;;;2.55;0.82;;;;;;;8.45;76.26;98483.22;5062473;28;20058;-82
2023/04/12 04:00:43;;;;;;;2.38;0.75;;;;;;;8.43;76.56;98485.41;5063120;28;20028;-82
2023/04/12 04:03:08;;;;;;;4.32;1.65;;;;;;;8.53;76.35;98479.91;5062777;28;20055;-82
2023/04/12 04:05:34;;;;;;;3.90;1.48;;;;;;;8.53;75.82;98477.19;5062616;28;20048;-82
2023/04/12 04:08:01;;;;;;;2.50;0.73;;;;;;;8.57;76.10;98461.16;5062279;28;20040;-83
2023/04/12 04:10:30;;;;;;;2.60;0.80;;;;;;;8.56;76.37;98454.06;5062962;28;20032;-82
2023/04/12 04:12:55;;;;;;;2.60;1.20;;;;;;;8.47;76.64;98459.28;5063888;28;20128;-82
2023/04/12 04:15:20;;;;;;;7.00;1.17;;;;;;;8.49;76.49;98451.66;5062655;28;20525;-82
2023/04/12 04:17:47;;;;;;;5.25;1.05;;;;;;;8.62;76.55;98449.44;5061928;28;20327;-82
2023/04/12 04:20:12;;;;;;;3.95;1.20;;;;;;;8.56;76.79;98439.69;5062456;28;20094;-83
2023/04/12 04:22:38;;;;;;;4.30;1.20;;;;;;;8.44;76.94;98429.97;5062292;28;20083;-82
2023/04/12 04:25:03;;;;;;;3.10;0.88;;;;;;;8.39;77.58;98433.56;5062028;28;20538;-82
2023/04/12 04:27:29;;;;;;;6.65;1.48;;;;;;;8.47;77.20;98431.31;5062284;28;20029;-83
2023/04/12 04:29:58;;;;;;;3.28;1.63;;;;;;;8.50;77.25;98412.53;5061636;28;20028;-82
2023/04/12 04:32:24;;;;;;;4.72;1.23;;;;;;;8.59;76.69;98406.53;5061753;28;20053;-81
2023/04/12 04:34:50;;;;;;;4.53;1.73;;;;;;;8.53;76.93;98409.25;5062151;28;20474;-82
2023/04/12 04:37:16;;;;;;;4.65;1.58;;;;;;;8.44;76.63;98405.53;5061612;28;20458;-82
2023/04/12 04:39:42;;;;;;;4.10;1.77;;;;;;;8.54;77.01;98415.50;5061559;28;21174;-82
2023/04/12 04:42:07;;;;;;;8.30;1.50;;;;;;;8.63;76.82;98402.97;5061116;28;20033;-82
2023/04/12 04:44:34;;;;;;;7.20;2.28;;;;;;;8.49;76.90;98408.22;5060993;28;20490;-83
2023/04/12 04:46:59;;;;;;;2.30;1.10;;;;;;;8.57;77.10;98395.94;5062004;28;20810;-80
2023/04/12 04:49:25;;;;;;;4.40;1.07;;;;;;;8.68;76.61;98410.25;5061638;28;20046;-82
2023/04/12 04:51:50;;;;;;;8.82;1.60;;;;;;;8.60;76.57;98403.50;5062944;28;20270;-82
2023/04/12 04:54:15;;;;;;;5.50;1.23;;;;;;;8.57;76.54;98392.41;5061882;28;20517;-83
2023/04/12 04:56:41;;;;;;;4.20;1.83;;;;;;;8.56;77.21;98386.16;5062677;28;20123;-83
2023/04/12 04:59:06;;;;;;;7.50;1.60;;;;;;;8.55;76.76;98384.53;5061786;28;20073;-82
2023/04/12 05:01:35;;;;;;;3.05;1.05;;;;;;;8.59;76.94;98371.22;5062093;28;20079;-82
2023/04/12 05:04:00;;;;;;;12.27;1.42;;;;;;;8.49;76.92;98367.47;5062051;28;20035;-82
2023/04/12 05:06:26;;;;;;;4.28;1.17;;;;;;;8.60;76.72;98370.13;5060608;28;20020;-83
2023/04/12 05:08:51;;;;;;;2.58;1.42;;;;;;;8.73;76.72;98371.34;5060334;28;20111;-82
2023/04/12 05:11:17;;;;;;;4.35;1.52;;;;;;;8.65;76.97;98367.34;5060497;28;20167;-82
2023/04/12 05:13:42;;;;;;;4.82;2.17;;;;;;;8.60;77.42;98356.53;5060151;28;21222;-82
2023/04/12 05:16:08;;;;;;;4.20;1.65;;;;;;;8.57;77.95;98359.81;5060191;28;20039;-81
2023/04/12 05:18:33;;;;;;;5.57;1.27;;;;;;;8.58;78.58;98351.41;5059758;28;20035;-82
2023/04/12 05:21:03;;;;;;;2.00;0.88;;;;;;;8.49;78.95;98351.16;5059558;28;20059;-82
2023/04/12 05:23:28;;;;;;;2.83;1.17;;;;;;;8.55;79.26;98351.09;5060503;28;20147;-82
2023/04/12 05:25:54;;;;;;;3.63;1.10;;;;;;;8.51;79.40;98343.53;5061168;28;20119;-82
2023/04/12 05:28:19;;;;;;;3.95;1.42;;;;;;;8.35;80.19;98340.16;5061470;28;20375;-83
2023/04/12 05:30:45;;;;;;;3.33;1.10;;;;;;;8.33;80.80;98333.38;5061273;28;20031;-81
2023/04/12 05:33:10;;;;;;;4.05;0.90;;;;;;;8.38;80.87;98327.91;5061112;28;20130;-82
2023/04/12 05:35:35;;;;;;;3.83;2.15;;;;;;;8.40;80.85;98317.59;5061081;28;20548;-83
2023/04/12 05:38:01;;;;;;;3.22;1.05;;;;;;;8.25;81.99;98326.66;5061277;28;20580;-82
2023/04/12 05:40:26;;;;;;;3.83;1.23;;;;;;;8.29;82.46;98312.25;5061781;28;20058;-82
2023/04/12 05:42:52;;;;;;;2.80;0.90;;;;;;;8.24;82.53;98312.28;5060499;28;20358;-83
2023/04/12 05:45:18;;;;;;;4.57;1.67;;;;;;;8.32;83.14;98304.63;5060463;28;20053;-82
2023/04/12 05:47:43;;;;;;;4.85;1.35;;;;;;;8.29;82.95;98298.66;5060577;28;20166;-83
2023/04/12 05:50:09;;;;;;;2.33;1.10;;;;;;;8.28;83.86;98304.34;5060148;28;20032;-81
2023/04/12 05:52:35;;;;;;;2.20;0.90;;;;;;;8.29;83.63;98290.53;5061275;28;20257;-82
2023/04/12 05:55:00;;;;;;;3.30;1.35;;;;;;;8.24;84.34;98293.25;5060132;28;20037;-82
2023/04/12 05:57:26;;;;;;;2.17;1.00;;;;;;;8.20;84.04;98289.50;5060904;28;20551;-82
2023/04/12 05:59:51;;;;;;;2.53;0.90;;;;;;;8.24;84.29;98287.00;5060890;28;20322;-82
2023/04/12 06:02:17;;;;;;;2.23;0.87;;;;;;;8.15;85.31;98274.09;5060132;28;20316;-82
2023/04/12 06:04:42;;;;;;;1.02;0.68;;;;;;;8.11;85.52;98269.50;5059991;28;21367;-82
2023/04/12 06:07:08;;;;;;;3.88;1.17;;;;;;;8.22;85.04;98265.59;5061145;28;20039;-83
2023/04/12 06:09:34;;;;;;;1.52;0.80;;;;;;;8.24;85.47;98265.28;5060945;28;20035;-82
2023/04/12 06:11:59;;;;;;;2.05;1.27;;;;;;;8.17;85.84;98255.59;5061056;28;20029;-82
2023/04/12 06:14:24;;;;;;;3.47;1.02;;;;;;;8.11;86.24;98255.94;5060177;28;20805;-82
2023/04/12 06:16:50;;;;;;;2.50;1.00;;;;;;;8.20;86.24;98264.28;5060109;28;20089;-82
2023/04/12 06:19:15;;;;;;;3.00;0.93;;;;;;;8.23;86.14;98256.34;5060371;28;20353;-82
2023/04/12 06:21:41;;;;;;;5.30;0.75;;;;;;;8.23;86.23;98247.41;5060041;28;20035;-82
2023/04/12 06:24:06;;;;;;;2.55;0.98;;;;;;;8.36;85.45;98243.22;5060568;28;20057;-82
2023/04/12 06:26:32;;;;;;;2.38;0.90;;;;;;;8.35;85.76;98255.16;5059645;28;20025;-82
2023/04/12 06:28:57;;;;;;;1.83;0.80;;;;;;;8.35;85.96;98238.88;5060526;28;20056;-82
2023/04/12 06:31:22;;;;;;;2.23;0.83;;;;;;;8.38;85.83;98247.25;5060217;28;20086;-82
2023/04/12 06:33:49;;;;;;;5.32;1.20;;;;;;;8.36;85.68;98246.72;5059763;28;20865;-84
2023/04/12 06:36:15;;;;;;;2.42;0.57;;;;;;;8.33;85.89;98238.34;5061057;28;20037;-82
2023/04/12 06:38:40;;;;;;;4.90;1.00;;;;;;;8.36;85.85;98235.06;5059768;28;20048;-83
2023/04/12 06:41:06;;;;;;;2.65;0.85;;;;;;;8.33;86.13;98230.19;5060666;28;20032;-83
2023/04/12 06:43:31;;;;;;;3.83;1.00;;;;;;;8.26;86.79;98227.81;5060263;28;20433;-83
2023/04/12 06:45:57;;;;;;;4.53;1.30;;;;;;;8.34;86.71;98215.53;5059398;28;20033;-82
2023/04/12 06:48:22;;;;;;;6.72;2.28;;;;;;;8.46;87.11;98202.34;5060454;28;20111;-83
2023/04/12 06:50:47;;;;;;;4.30;1.67;;;;;;;8.44;86.53;98209.19;5061040;28;20029;-82
2023/04/12 06:53:13;;;;;;;3.53;0.57;;;;;;;8.37;87.07;98198.66;5059015;28;20051;-79
2023/04/12 06:55:38;;;;;;;1.35;0.57;;;;;;;8.23;87.09;98204.78;5058141;28;20733;-82
2023/04/12 06:58:04;;;;;;;1.58;0.65;;;;;;;8.41;87.22;98200.50;5059093;28;20825;-82
2023/04/12 07:00:29;;;;;;;2.03;1.10;;;;;;;8.55;86.70;98197.09;5060103;28;20039;-82
2023/04/12 07:02:54;;;;;;;2.28;0.95;;;;;;;8.59;86.78;98200.88;5056886;28;20077;-82
2023/04/12 07:05:20;;;;;;;1.70;0.53;;;;;;;8.64;86.72;98197.28;5060634;28;20047;-82
2023/04/12 07:07:45;;;;;;;4.22;0.95;;;;;;;8.75;86.67;98192.53;5059970;28;20399;-81
2023/04/12 07:10:11;;;;;;;2.22;1.10;;;;;;;8.79;86.44;98179.97;5059310;28;20127;-82
2023/04/12 07:12:36;;;;;;;3.10;0.70;;;;;;;8.84;85.81;98174.50;5059017;28;20036;-84
2023/04/12 07:15:01;;;;;;;0.73;0.50;;;;;;;8.75;86.32;98168.88;5059267;28;20028;-84
2023/04/12 07:17:27;;;;;;;1.40;0.68;;;;;;;8.71;86.42;98180.63;5060009;28;20338;-83
2023/04/12 07:19:55;;;;;;;1.20;0.60;;;;;;;8.70;86.59;98179.03;5058904;28;20038;-84
2023/04/12 07:22:20;;;;;;;1.35;0.52;;;;;;;8.69;86.83;98177.38;5060020;28;20675;-86
2023/04/12 07:24:47;;;;;;;2.08;0.57;;;;;;;8.73;86.81;98162.94;5058969;28;20064;-81
2023/04/12 07:27:12;;;;;;;1.75;0.50;;;;;;;8.82;86.88;98159.56;5060552;28;20028;-83
2023/04/12 07:29:38;;;;;;;0.70;0.32;;;;;;;8.74;86.90;98153.69;5059033;28;20757;-75
2023/04/12 07:32:03;;;;;;;3.10;0.40;;;;;;;8.73;86.51;98151.25;5058852;28;20028;-79
2023/04/12 07:34:29;;;;;;;1.65;0.75;;;;;;;8.80;87.08;98134.59;5056742;28;20360;-78
2023/04/12 07:36:54;;;;;;;2.03;0.55;;;;;;;8.94;86.77;98135.50;5058743;28;20447;-77
2023/04/12 07:39:20;;;;;;;3.80;0.52;;;;;;;9.01;86.51;98148.69;5057987;28;20051;-77
2023/04/12 07:41:47;;;;;;;0.80;0.30;;;;;;;9.04;86.50;98139.97;5058427;28;20029;-78
2023/04/12 07:44:12;;;;;;;0.98;0.47;;;;;;;8.99;86.70;98131.88;5058719;28;20025;-76
2023/04/12 07:46:38;;;;;;;0.50;0.30;;;;;;;9.04;87.14;98128.28;5058557;28;20653;-76
2023/04/12 07:49:03;;;;;;;0.82;0.30;;;;;;;8.95;86.84;98122.72;5058613;28;20040;-82
2023/04/12 07:51:28;;;;;;;7.20;1.13;;;;;;;8.98;87.11;98127.53;5059461;28;20299;-80
2023/04/12 07:53:54;;;;;;;0.73;0.30;;;;;;;9.10;86.61;98121.66;5059590;28;20270;-80
2023/04/12 07:56:19;;;;;;;0.75;0.38;;;;;;;9.10;86.90;98116.22;5059082;28;20047;-80
2023/04/12 07:58:44;;;;;;;1.73;0.68;;;;;;;9.14;87.02;98106.38;5059882;28;20041;-82
2023/04/12 08:01:12;;;;;;;0.80;0.30;;;;;;;9.37;86.89;98103.84;5058777;28;20028;-81
2023/04/12 08:03:37;;;;;;;0.60;0.30;;;;;;;9.46;86.42;98080.28;5058039;28;20504;-82
2023/04/12 08:06:03;;;;;;;0.43;0.30;;;;;;;9.38;86.58;98100.00;5059006;28;20036;-82
2023/04/12 08:08:28;;;;;;;1.55;0.45;;;;;;;9.37;86.82;98092.97;5061177;28;20031;-82
2023/04/12 08:10:53;;;;;;;1.17;0.40;;;;;;;9.40;86.65;98091.53;5062853;28;20033;-82
2023/04/12 08:13:19;;;;;;;0.60;0.22;;;;;;;9.32;86.26;98091.13;5063316;28;20028;-82
2023/04/12 08:15:46;;;;;;;4.03;0.60;;;;;;;9.34;86.58;98088.09;5062262;28;20068;-79
2023/04/12 08:18:11;;;;;;;0.90;0.55;;;;;;;9.34;86.45;98097.06;5062072;28;20044;-82
2023/04/12 08:20:39;;;;;;;0.40;0.30;;;;;;;9.40;86.32;98116.03;5062845;28;20032;-82
2023/04/12 08:23:04;;;;;;;0.70;0.32;;;;;;;9.20;86.82;98118.78;5062806;28;20036;-81
2023/04/12 08:25:30;;;;;;;1.17;0.40;;;;;;;9.29;87.61;98118.13;5062882;28;20037;-82
2023/04/12 08:27:55;;;;;;;2.05;0.50;;;;;;;9.40;87.16;98122.28;5063472;28;20037;-81
2023/04/12 08:30:25;;;;;;;2.28;0.55;;;;;;;9.34;87.38;98124.28;5062572;28;20032;-80
2023/04/12 08:32:54;;;;;;;0.50;0.15;;;;;;;9.23;87.57;98131.78;5062430;28;20024;-82
2023/04/12 08:35:21;;;;;;;3.17;0.57;;;;;;;9.34;87.56;98120.75;5061953;28;20032;-81
2023/04/12 08:37:46;;;;;;;3.97;0.65;;;;;;;9.36;87.42;98113.09;5061233;28;20035;-82
2023/04/12 08:40:12;;;;;;;2.40;0.50;;;;;;;9.48;87.01;98120.00;5062639;28;20670;-81
2023/04/12 08:42:37;;;;;;;1.27;0.40;;;;;;;9.59;87.41;98099.66;5062730;28;20044;-81
2023/04/12 08:45:10;;;;;;;0.87;0.40;;;;;;;9.62;87.24;98103.72;5061510;28;20040;-81
2023/04/12 08:47:38;;;;;;;2.22;0.40;;;;;;;9.68;87.39;98097.84;5061942;28;20260;-81
2023/04/12 08:50:08;;;;;;;0.70;0.40;;;;;;;9.79;87.21;98093.03;5062594;28;20048;-81
2023/04/12 08:52:34;;;;;;;1.33;0.40;;;;;;;9.62;87.69;98087.38;5062677;28;20040;-82
2023/04/12 08:55:02;;;;;;;1.67;0.25;;;;;;;9.64;87.87;98085.94;5061318;28;20122;-81
2023/04/12 08:57:28;;;;;;;0.82;0.32;;;;;;;9.90;87.18;98077.34;5062061;28;20116;-82
2023/04/12 08:59:54;;;;;;;2.00;0.70;;;;;;;9.78;87.07;98085.19;5062106;28;20119;-82
2023/04/12 09:02:19;;;;;;;2.28;0.32;;;;;;;9.86;87.23;98089.94;5061255;28;20829;-83
2023/04/12 09:04:47;;;;;;;2.13;1.07;;;;;;;9.90;87.05;98088.22;5061764;28;20105;-81
2023/04/12 09:07:12;;;;;;;2.58;0.40;;;;;;;9.88;87.31;98090.44;5061162;28;20260;-81
2023/04/12 09:09:45;;;;;;;1.03;0.27;;;;;;;9.88;86.66;98084.19;5062024;28;20041;-82
2023/04/12 09:12:11;;;;;;;0.57;0.38;;;;;;;9.78;87.33;98085.97;5061395;28;20765;-82
2023/04/12 09:14:37;;;;;;;1.58;0.43;;;;;;;9.87;87.43;98077.94;5060986;28;20967;-81
2023/04/12 09:17:04;;;;;;;0.80;0.50;;;;;;;10.00;86.83;98070.06;5061891;28;20029;-81
2023/04/12 09:19:31;;;;;;;1.50;0.82;;;;;;;10.18;86.45;98078.44;5059892;28;20115;-82
2023/04/12 09:21:57;;;;;;;2.67;0.50;;;;;;;10.22;86.05;98077.53;5060733;28;20028;-82
2023/04/12 09:24:23;;;;;;;2.80;0.40;;;;;;;10.24;86.35;98069.03;5060140;28;20059;-82
2023/04/12 09:27:00;;;;;;;1.08;0.40;;;;;;;10.44;85.34;98070.53;5060685;28;20404;-81
2023/04/12 09:29:25;;;;;;;0.95;0.30;;;;;;;10.34;85.94;98066.13;5061463;28;20036;-81
2023/04/12 09:32:02;;;;;;;1.10;0.73;;;;;;;10.26;86.43;98061.38;5061338;28;20029;-81
2023/04/12 09:34:28;;;;;;;0.82;0.28;;;;;;;10.27;86.12;98071.19;5061017;28;20450;-81
2023/04/12 09:36:54;;;;;;;3.22;0.47;;;;;;;10.32;86.74;98070.25;5060306;28;20522;-82
2023/04/12 09:39:28;;;;;;;0.73;0.25;;;;;;;10.28;86.98;98064.59;5060359;28;20053;-81
2023/04/12 09:42:03;;;;;;;0.40;0.20;;;;;;;10.31;87.39;98068.66;5061457;28;20033;-81
2023/04/12 09:44:29;;;;;;;1.45;0.50;;;;;;;10.56;87.13;98058.31;5060714;28;20093;-82
2023/04/12 09:46:54;;;;;;;1.38;0.40;;;;;;;10.61;86.84;98061.75;5059858;28;20037;-81
2023/04/12 09:49:35;;;;;;;0.73;0.60;;;;;;;10.67;86.55;98051.53;5061483;28;20063;-81
2023/04/12 09:52:01;;;;;;;1.63;0.80;;;;;;;10.78;86.99;98049.38;5060247;28;20482;-82
2023/04/12 09:54:26;;;;;;;1.40;0.57;;;;;;;10.97;86.54;98059.31;5059723;28;20043;-81
2023/04/12 09:56:54;;;;;;;2.33;1.47;;;;;;;10.97;86.46;98054.66;5060713;28;20444;-81
2023/04/12 09:59:22;;;;;;;0.82;0.32;;;;;;;10.93;85.89;98052.84;5060310;28;20993;-81
2023/04/12 10:01:47;;;;;;;1.17;0.40;;;;;;;11.11;85.23;98061.16;5061163;28;20146;-81
2023/04/12 10:04:13;;;;;;;0.38;0.30;;;;;;;11.13;85.60;98058.94;5060096;28;20162;-81
2023/04/12 10:06:40;;;;;;;2.72;0.40;;;;;;;11.20;85.77;98054.69;5060890;28;20398;-81
2023/04/12 10:09:07;;;;;;;0.80;0.35;;;;;;;11.32;84.65;98051.38;5060426;28;20039;-81
2023/04/12 10:11:33;;;;;;;0.40;0.30;;;;;;;11.45;84.77;98051.63;5061302;28;20036;-81
2023/04/12 10:14:01;;;;;;;0.60;0.40;;;;;;;11.52;84.83;98062.88;5059163;28;20679;-82
2023/04/12 10:16:26;;;;;;;1.55;0.47;;;;;;;11.49;84.35;98049.84;5060369;28;20059;-81
2023/04/12 10:18:53;;;;;;;0.82;0.60;;;;;;;11.53;85.10;98041.84;5060366;28;20072;-81
2023/04/12 10:21:20;;;;;;;0.82;0.57;;;;;;;11.78;84.75;98037.63;5060746;28;20123;-81
2023/04/12 10:23:46;;;;;;;1.30;0.68;;;;;;;11.96;83.54;98029.47;5058880;28;20505;-81
2023/04/12 10:26:14;;;;;;;1.50;0.50;;;;;;;11.86;84.74;98040.69;5060428;28;20036;-81
2023/04/12 10:28:40;;;;;;;1.38;0.40;;;;;;;11.95;82.99;98030.63;5060747;28;20024;-80
2023/04/12 10:31:29;;;;;;;1.13;0.40;;;;;;;12.36;81.93;98016.91;5059892;28;20070;-81
2023/04/12 10:33:54;;;;;;;0.88;0.30;;;;;;;12.59;82.22;98014.06;5059238;28;20033;-80
2023/04/12 10:36:53;;;;;;;1.42;0.55;;;;;;;12.59;81.27;98019.50;5060022;28;20509;-81
2023/04/12 10:39:36;;;;;;;1.13;0.32;;;;;;;12.48;82.07;98011.63;5060321;28;20047;-80
2023/04/12 10:42:25;;;;;;;1.23;0.75;;;;;;;12.37;81.85;98015.78;5060206;28;20039;-81
2023/04/12 10:44:52;;;;;;;0.43;0.40;;;;;;;12.15;81.57;98020.25;5059811;28;20028;-81
2023/04/12 10:47:59;;;;;;;1.58;0.75;;;;;;;12.47;80.14;98010.00;5059885;28;20154;-81
2023/04/12 10:50:29;;;;;;;0.75;0.40;;;;;;;12.37;80.95;98010.31;4981375;28;20061;-81
2023/04/12 10:53:12;;;;;;;0.90;0.60;;;;;;;12.28;79.65;98017.72;4981443;28;20034;-82
2023/04/12 10:55:38;;;;;;;1.60;0.30;;;;;;;12.11;81.10;98031.00;5030576;28;20059;-82
2023/04/12 10:58:04;;;;;;;1.02;0.60;;;;;;;12.20;81.02;98027.50;5060669;28;20252;-81
2023/04/12 11:00:55;;;;;;;0.40;0.40;;;;;;;12.16;80.19;98027.34;5060330;28;20599;-81
2023/04/12 11:03:21;;;;;;;0.20;0.20;;;;;;;12.20;81.31;98030.22;5059888;28;20031;-80
2023/04/12 11:06:02;;;;;;;0.60;0.40;;;;;;;12.22;80.96;98039.72;5059073;28;20410;-81
2023/04/12 11:08:29;;;;;;;1.83;0.57;;;;;;;12.12;81.39;98037.28;5059646;28;20021;-83
2023/04/12 11:11:02;;;;;;;4.18;0.75;;;;;;;12.14;81.36;98037.78;5059222;28;20036;-81
2023/04/12 11:13:33;;;;;;;0.60;0.60;;;;;;;11.94;81.51;98042.66;5059816;28;20043;-81
2023/04/12 11:16:05;;;;;;;2.50;0.88;;;;;;;11.91;81.61;98059.69;5058309;28;20119;-81
2023/04/12 11:18:33;;;;;;;1.27;0.73;;;;;;;11.87;82.11;98056.78;5059661;28;20032;-81
2023/04/12 11:20:58;;;;;;;2.55;1.00;;;;;;;11.62;83.20;98067.25;5058931;28;20036;-81
2023/04/12 11:23:24;;;;;;;1.00;0.55;;;;;;;11.52;84.64;98068.34;5058542;28;20059;-81
2023/04/12 11:25:52;;;;;;;1.70;0.73;;;;;;;11.50;84.03;98076.03;5059132;28;20041;-81
2023/04/12 11:28:18;;;;;;;1.15;0.50;;;;;;;10.98;82.08;98074.56;5060330;28;20572;-81
2023/04/12 11:30:55;;;;;;;3.65;1.15;;;;;;;11.06;82.97;98070.28;5059002;28;20039;-81
2023/04/12 11:33:49;;;;;;;0.93;0.50;;;;;;;11.25;82.06;98070.09;5058272;28;20052;-81
2023/04/12 11:36:16;;;;;;;1.25;0.68;;;;;;;11.45;81.40;98048.88;5040986;28;20051;-81
2023/04/12 11:38:44;;;;;;;1.85;0.43;;;;;;;11.57;81.18;98056.47;5058556;28;20403;-81
2023/04/12 11:41:10;;;;;;;6.03;0.95;;;;;;;11.62;80.50;98050.06;5058763;28;20033;-81